AirNav   Everest Fuels
 
 916 users online  

6AZ0 Lyon Aviation South Ramp Heliport
Scottsdale, Arizona, USA

GOING TO SCOTTSDALE?


FAA INFORMATION EFFECTIVE 08 SEPTEMBER 2022

Location

FAA Identifier: 6AZ0
Lat/Long: 33-37-28.2000N 111-55-16.8000W
33-37.470000N 111-55.280000W
33.6245000,-111.9213333
(estimated)
Elevation: 1455 ft. / 443 m (estimated)
Time zone: UTC -7 (year round; does not observe DST)
Zip code: 85254

Heliport Operations

Heliport use: Private use. Permission required prior to landing
Activation date: 08/2009
Control tower: no
ARTCC: ALBUQUERQUE CENTER
FSS: PRESCOTT FLIGHT SERVICE STATION
Attendance: UNATNDD
Segmented circle: no

Heliport Communications

WX ASOS at SDL (0.5 nm E): PHONE 480-483-3049
WX ASOS at DVT (9 nm NW): 126.5 (623-587-7764)
WX AWOS-1 at 18AZ (12 nm N): 125.625 (480-488-7882)
WX ASOS at PHX (12 nm S): PHONE 602-231-8557
WX ASOS at FFZ (14 nm SE): PHONE 480-641-4111
WX AWOS-3 at GEU (20 nm W): PHONE 623-877-8609

Nearby radio navigation aids

VOR radial/distance  VOR name  Freq  Var
PXRr000/11.7PHOENIX VORTAC115.6012E
IWAr312/23.5WILLIE VORTAC113.3013E

Heliport Services

Runway Information

Helipad H1

Dimensions: 68 x 68 ft. / 21 x 21 m
Surface: concrete
Runway edge lights: PERI
Traffic pattern: leftleft

Heliport Ownership and Management from official FAA records

Ownership: Privately-owned
Owner: WATTS INVESTMENTS LLC
7305 E. GREENWAY RD
SCOTTSDALE, AZ 85260
Phone 602-300-5375
Manager: MIKE WATTS
7975 E MCCLAIN DR
SCOTTSDALE, AZ 85260
Phone 602-300-5375

Additional Remarks

FOR CD CTC PHOENIX APCH AT 602-306-2565.

Instrument Procedures

There are no published instrument procedures at 6AZ0.

Some nearby airports with instrument procedures:

KSDL - Scottsdale Airport (1 nm E)
KDVT - Phoenix Deer Valley Airport (9 nm NW)
KPHX - Phoenix Sky Harbor International Airport (12 nm S)
KFFZ - Falcon Field Airport (14 nm SE)
P19 - Stellar Airpark (20 nm S)
KGEU - Glendale Municipal Airport (20 nm W)
 
Loc | Ops | Rwys | IFR | FBO | Links
Com | Nav | Svcs | Stats | Notes
Aerial photo
No photo
 
Sectional chart

 
Airport distance calculator
Flying to Lyon Aviation South Ramp Heliport? Find the distance to fly.

From to 6AZ0

Sunrise and sunset
Times for 02-Oct-2022
 Local
(UTC-7)
 Zulu
(UTC)
Morning civil twilight05:5912:59
Sunrise06:2413:24
Sunset18:1001:10
Evening civil twilight18:3501:35

Current date and time
Zulu (UTC)  02-Oct-2022 23:03:06
Local (UTC-7)  02-Oct-2022 16:03:06
 
METAR
KSDL 022253Z 18007KT 150V220 10SM CLR 34/11 A2986 RMK AO2 SLP084 T03440106
KDVT 
8nm NW 
022253Z 21005KT 10SM CLR 34/11 A2985 RMK AO2 SLP082 T03390111
KPHX 
13nm SW 
022251Z VRB03KT 10SM FEW100 SCT250 36/11 A2981 RMK AO2 SLP074 CB DSNT NW-N TCU DSNT SE T03560111 $
KFFZ 
14nm SE 
022254Z AUTO 27008KT 10SM CLR 34/11 A2983 RMK AO2 SLP077 T03440106
KGEU 
20nm W 
022257Z VRB05KT 10SM FEW100 35/11 A2981
TAF
KSDL 021720Z 0218/0318 VRB04KT P6SM FEW100 FEW150 FM022100 21007KT P6SM FEW100 FEW150 FM030300 04005KT P6SM FEW100 SCT150 SCT250 FM030800 VRB03KT P6SM FEW100 FEW150
KDVT 
8nm NW 
021720Z 0218/0318 18008KT P6SM FEW100 FEW150 FM022200 23009KT P6SM FEW100 FEW150 FM030400 03008KT P6SM FEW100 SCT150 SCT250 FM030900 VRB04KT P6SM FEW100 FEW150
KPHX 
13nm SW 
022102Z 0221/0324 16007KT P6SM FEW100 FEW150 FM022200 21007KT P6SM FEW100 FEW150 FM030000 25006KT P6SM FEW100 FEW150 FM030400 10005KT P6SM FEW100 SCT150 SCT250 FM031700 14008KT P6SM FEW100 FEW150 FM032100 28008KT P6SM FEW100 FEW150
NOTAMs
Click for the latest NOTAMs
NOTAMs are issued by the DoD/FAA and will open in a separate window not controlled by AirNav.

 

 
 

Would you like to see your business listed on this page?

 If your business provides an interesting product or service to pilots, flight crews, aircraft, or users of the Lyon Aviation South Ramp Heliport, you should consider listing it here.  To start the listing process, click on the button below
 
Add a business
 

Other Pages about Lyon Aviation South Ramp Heliport

Update a link
 
Copyright © AirNav, LLC. All rights reserved. Privacy Policy  Contact